Lafayette, IN (47905)

6:51 AM EST on February 11, 2016 (GMT -0500)
SW Lafayette | | Change Station
CLOSE
Current Station
Personal Weather Station
Location: Lafayette, IN
Elevation: 627 ft
Nearby Weather Stations

Elev 627 ft 40.36 °N, 86.94 °W | Updated 13 seconds ago

Clear
Clear
7.3 °F
Feels Like 7 °F
N
0.0
Wind Variable Wind from SW
Gusts 0.0 mph

Today
High -- | Low -- °F
--% Chance of Precip.
Yesterday
High -- | Low -- °F
Precip. -- in
Pressure 30.26 in
Visibility 10.0 miles
Clouds Few 11000 ft
Windchill 7 °F
Dew Point -7 °F
Humidity 52%
Rainfall 0.00 in
Snow Depth Not available.
7:46 AM 6:17 PM
Waxing Crescent, 11% visible
METAR KLAF 111054Z AUTO 32006KT 10SM FEW110 M13/M16 A3023 RMK AO2 SLP247 T11281161
Pressure 30.26 in
Visibility 10.0 miles
Clouds Few 11000 ft
Windchill 7 °F
Dew Point -7 °F
Humidity 52%
Rainfall 0.00 in
Snow Depth Not available.
7:46 AM 6:17 PM
Waxing Crescent, 11% visible
METAR KLAF 111054Z AUTO 32006KT 10SM FEW110 M13/M16 A3023 RMK AO2 SLP247 T11281161

10-Day Weather Forecast

Almanac

Astronomy

Feb. 11, 2016 Rise Set
Actual Time
Civil Twilight
Nautical Twilight
Astronomical Twilight
Moon
Length of Visible Light
Length of Day
Tomorrow will be .
, % of the Moon is Illuminated

Today's Extremes

State Highs State Lows

Community

WunderPhotos

Upload Photos

1,892,030 photos uploaded!

WunderBlog® & News

Nearby

Air Quality

  Air Quality AQ Index Pollutant
Not available.

Snow Depth

Station Depth Elevation

Earthquake Activity

City Distance Mag. Time & Date
Minimum magnitude displayed is 2.5.

Coastal Water Temperatures

Place Temperature

Stations

Nearby Weather Stations

Station Location Temp. Windchill Dew Point Humidity Wind Precip. Elev Updated Type
                   

Watches & Warnings

There are currently no watches in effect.